sensor_id;sensor_type;location;lat;lon;timestamp;pressure;altitude;pressure_sealevel;temperature;humidity
49843;BME280;55559;48.898;9.184;2022-12-07T00:01:07;98544.50;;;3.02;100.00
49843;BME280;55559;48.898;9.184;2022-12-07T00:03:36;98541.19;;;2.98;100.00
49843;BME280;55559;48.898;9.184;2022-12-07T00:06:04;98540.06;;;3.03;100.00
49843;BME280;55559;48.898;9.184;2022-12-07T00:08:33;98541.28;;;2.97;100.00
49843;BME280;55559;48.898;9.184;2022-12-07T00:11:03;98534.97;;;3.00;100.00
49843;BME280;55559;48.898;9.184;2022-12-07T00:13:31;98530.06;;;2.93;100.00
49843;BME280;55559;48.898;9.184;2022-12-07T00:16:00;98525.50;;;2.97;100.00
49843;BME280;55559;48.898;9.184;2022-12-07T00:18:28;98530.78;;;2.97;100.00
49843;BME280;55559;48.898;9.184;2022-12-07T00:20:59;98537.47;;;2.87;100.00
49843;BME280;55559;48.898;9.184;2022-12-07T00:23:27;98533.22;;;2.84;100.00
49843;BME280;55559;48.898;9.184;2022-12-07T00:25:55;98533.06;;;2.87;100.00
49843;BME280;55559;48.898;9.184;2022-12-07T00:28:30;98535.00;;;2.84;100.00
49843;BME280;55559;48.898;9.184;2022-12-07T00:31:03;98527.13;;;2.84;100.00
49843;BME280;55559;48.898;9.184;2022-12-07T00:33:31;98529.47;;;2.88;100.00
49843;BME280;55559;48.898;9.184;2022-12-07T00:36:00;98528.72;;;2.86;100.00
49843;BME280;55559;48.898;9.184;2022-12-07T00:38:36;98521.53;;;2.90;100.00
49843;BME280;55559;48.898;9.184;2022-12-07T00:41:05;98523.66;;;2.83;100.00
49843;BME280;55559;48.898;9.184;2022-12-07T00:43:34;98523.56;;;2.85;100.00
49843;BME280;55559;48.898;9.184;2022-12-07T00:46:02;98517.88;;;2.76;100.00
49843;BME280;55559;48.898;9.184;2022-12-07T00:48:29;98524.59;;;2.82;100.00
49843;BME280;55559;48.898;9.184;2022-12-07T00:50:58;98526.56;;;2.78;100.00
49843;BME280;55559;48.898;9.184;2022-12-07T00:53:27;98530.50;;;2.70;100.00
49843;BME280;55559;48.898;9.184;2022-12-07T00:55:54;98531.13;;;2.75;100.00
49843;BME280;55559;48.898;9.184;2022-12-07T00:58:22;98530.25;;;2.74;100.00
49843;BME280;55559;48.898;9.184;2022-12-07T01:00:51;98527.63;;;2.74;100.00
49843;BME280;55559;48.898;9.184;2022-12-07T01:03:18;98529.50;;;2.72;100.00
49843;BME280;55559;48.898;9.184;2022-12-07T01:05:50;98530.72;;;2.67;100.00
49843;BME280;55559;48.898;9.184;2022-12-07T01:08:18;98531.03;;;2.76;100.00
49843;BME280;55559;48.898;9.184;2022-12-07T01:10:45;98529.00;;;2.66;100.00
49843;BME280;55559;48.898;9.184;2022-12-07T01:13:14;98521.56;;;2.74;100.00
49843;BME280;55559;48.898;9.184;2022-12-07T01:15:41;98522.47;;;2.73;100.00
49843;BME280;55559;48.898;9.184;2022-12-07T01:18:11;98523.41;;;2.72;100.00
49843;BME280;55559;48.898;9.184;2022-12-07T01:20:38;98532.56;;;2.65;100.00
49843;BME280;55559;48.898;9.184;2022-12-07T01:23:06;98524.88;;;2.62;100.00
49843;BME280;55559;48.898;9.184;2022-12-07T01:25:33;98528.25;;;2.64;100.00
49843;BME280;55559;48.898;9.184;2022-12-07T01:28:01;98518.66;;;2.63;100.00
49843;BME280;55559;48.898;9.184;2022-12-07T01:30:28;98524.88;;;2.62;100.00
49843;BME280;55559;48.898;9.184;2022-12-07T01:32:56;98528.16;;;2.65;100.00
49843;BME280;55559;48.898;9.184;2022-12-07T01:35:24;98528.25;;;2.64;100.00
49843;BME280;55559;48.898;9.184;2022-12-07T01:37:52;98540.53;;;2.63;100.00
49843;BME280;55559;48.898;9.184;2022-12-07T01:40:19;98534.94;;;2.69;100.00
49843;BME280;55559;48.898;9.184;2022-12-07T01:42:47;98530.34;;;2.73;100.00
49843;BME280;55559;48.898;9.184;2022-12-07T01:45:38;98538.50;;;2.68;100.00
49843;BME280;55559;48.898;9.184;2022-12-07T01:48:07;98533.94;;;2.72;100.00
49843;BME280;55559;48.898;9.184;2022-12-07T01:50:39;98536.28;;;2.76;100.00
49843;BME280;55559;48.898;9.184;2022-12-07T01:53:09;98536.38;;;2.75;100.00
49843;BME280;55559;48.898;9.184;2022-12-07T01:55:39;98540.69;;;2.76;100.00
49843;BME280;55559;48.898;9.184;2022-12-07T01:58:14;98532.47;;;2.82;100.00
49843;BME280;55559;48.898;9.184;2022-12-07T02:00:43;98533.41;;;2.81;100.00
49843;BME280;55559;48.898;9.184;2022-12-07T02:03:14;98536.19;;;2.78;100.00
49843;BME280;55559;48.898;9.184;2022-12-07T02:05:46;98526.34;;;2.82;100.00
49843;BME280;55559;48.898;9.184;2022-12-07T02:08:14;98528.31;;;2.78;100.00
49843;BME280;55559;48.898;9.184;2022-12-07T02:10:42;98522.63;;;2.86;100.00
49843;BME280;55559;48.898;9.184;2022-12-07T02:13:12;98517.63;;;2.81;100.00
49843;BME280;55559;48.898;9.184;2022-12-07T02:15:47;98526.47;;;2.80;100.00
49843;BME280;55559;48.898;9.184;2022-12-07T02:18:23;98527.47;;;2.77;100.00
49843;BME280;55559;48.898;9.184;2022-12-07T02:21:02;98525.69;;;2.78;100.00
49843;BME280;55559;48.898;9.184;2022-12-07T02:24:05;98526.47;;;2.80;100.00
49843;BME280;55559;48.898;9.184;2022-12-07T02:29:46;98516.72;;;2.82;100.00
49843;BME280;55559;48.898;9.184;2022-12-07T02:32:24;98519.69;;;2.76;100.00
49843;BME280;55559;48.898;9.184;2022-12-07T02:34:58;98520.50;;;2.76;100.00
49843;BME280;55559;48.898;9.184;2022-12-07T02:37:36;98521.31;;;2.78;100.00
49843;BME280;55559;48.898;9.184;2022-12-07T02:40:16;98509.00;;;2.79;100.00
49843;BME280;55559;48.898;9.184;2022-12-07T02:42:48;98507.06;;;2.83;100.00
49843;BME280;55559;48.898;9.184;2022-12-07T02:45:21;98506.22;;;2.82;100.00
49843;BME280;55559;48.898;9.184;2022-12-07T02:47:53;98502.06;;;2.78;100.00
49843;BME280;55559;48.898;9.184;2022-12-07T02:50:25;98503.94;;;2.76;100.00
49843;BME280;55559;48.898;9.184;2022-12-07T02:52:53;98510.00;;;2.76;100.00
49843;BME280;55559;48.898;9.184;2022-12-07T02:55:26;98498.16;;;2.69;100.00
49843;BME280;55559;48.898;9.184;2022-12-07T02:58:15;98504.25;;;2.70;100.00
49843;BME280;55559;48.898;9.184;2022-12-07T03:00:54;98499.13;;;2.68;100.00
49843;BME280;55559;48.898;9.184;2022-12-07T03:03:24;98494.13;;;2.64;100.00
49843;BME280;55559;48.898;9.184;2022-12-07T03:06:03;98499.44;;;2.62;100.00
49843;BME280;55559;48.898;9.184;2022-12-07T03:08:43;98489.88;;;2.61;100.00
49843;BME280;55559;48.898;9.184;2022-12-07T03:11:14;98500.66;;;2.56;100.00
49843;BME280;55559;48.898;9.184;2022-12-07T03:13:45;98492.88;;;2.55;100.00
49843;BME280;55559;48.898;9.184;2022-12-07T03:16:21;98500.75;;;2.55;100.00
49843;BME280;55559;48.898;9.184;2022-12-07T03:18:50;98489.44;;;2.53;100.00
49843;BME280;55559;48.898;9.184;2022-12-07T03:21:22;98491.41;;;2.49;100.00
49843;BME280;55559;48.898;9.184;2022-12-07T03:23:53;98496.50;;;2.52;100.00
49843;BME280;55559;48.898;9.184;2022-12-07T03:26:27;98497.41;;;2.51;100.00
49843;BME280;55559;48.898;9.184;2022-12-07T03:28:59;98489.53;;;2.51;100.00
49843;BME280;55559;48.898;9.184;2022-12-07T03:31:32;98490.41;;;2.52;100.00
49843;BME280;55559;48.898;9.184;2022-12-07T03:34:04;98484.56;;;2.47;100.00
49843;BME280;55559;48.898;9.184;2022-12-07T03:36:35;98482.69;;;2.49;100.00
49843;BME280;55559;48.898;9.184;2022-12-07T03:39:14;98482.78;;;2.47;100.00
49843;BME280;55559;48.898;9.184;2022-12-07T03:41:44;98482.78;;;2.47;100.00
49843;BME280;55559;48.898;9.184;2022-12-07T03:44:12;98483.31;;;2.38;100.00
49843;BME280;55559;48.898;9.184;2022-12-07T03:46:45;98483.56;;;2.33;100.00
49843;BME280;55559;48.898;9.184;2022-12-07T03:49:23;98481.59;;;2.37;100.00
49843;BME280;55559;48.898;9.184;2022-12-07T03:51:56;98478.88;;;2.38;100.00
49843;BME280;55559;48.898;9.184;2022-12-07T03:54:32;98475.31;;;2.39;100.00
49843;BME280;55559;48.898;9.184;2022-12-07T03:57:03;98470.69;;;2.45;100.00
49843;BME280;55559;48.898;9.184;2022-12-07T03:59:31;98475.06;;;2.44;100.00
49843;BME280;55559;48.898;9.184;2022-12-07T04:02:04;98467.19;;;2.44;100.00
49843;BME280;55559;48.898;9.184;2022-12-07T04:04:32;98454.16;;;2.42;100.00
49843;BME280;55559;48.898;9.184;2022-12-07T04:07:00;98445.38;;;2.44;100.00
49843;BME280;55559;48.898;9.184;2022-12-07T04:09:28;98444.06;;;2.51;100.00
49843;BME280;55559;48.898;9.184;2022-12-07T04:11:56;98441.69;;;2.46;100.00
49843;BME280;55559;48.898;9.184;2022-12-07T04:14:23;98444.06;;;2.51;100.00
49843;BME280;55559;48.898;9.184;2022-12-07T04:16:54;98442.50;;;2.48;100.00
49843;BME280;55559;48.898;9.184;2022-12-07T04:19:25;98436.88;;;2.54;100.00
49843;BME280;55559;48.898;9.184;2022-12-07T04:21:53;98434.06;;;2.57;100.00
49843;BME280;55559;48.898;9.184;2022-12-07T04:24:21;98428.81;;;2.57;100.00
49843;BME280;55559;48.898;9.184;2022-12-07T04:26:49;98415.03;;;2.54;100.00
49843;BME280;55559;48.898;9.184;2022-12-07T04:29:17;98428.31;;;2.51;100.00
49843;BME280;55559;48.898;9.184;2022-12-07T04:31:45;98427.31;;;2.53;100.00
49843;BME280;55559;48.898;9.184;2022-12-07T04:34:13;98418.94;;;2.47;100.00
49843;BME280;55559;48.898;9.184;2022-12-07T04:36:42;98417.59;;;2.39;100.00
49843;BME280;55559;48.898;9.184;2022-12-07T04:39:14;98427.41;;;2.36;100.00
49843;BME280;55559;48.898;9.184;2022-12-07T04:41:51;98440.09;;;2.28;100.00
49843;BME280;55559;48.898;9.184;2022-12-07T04:44:19;98443.44;;;2.31;100.00
49843;BME280;55559;48.898;9.184;2022-12-07T04:46:47;98444.19;;;2.33;100.00
49843;BME280;55559;48.898;9.184;2022-12-07T04:49:15;98447.91;;;2.29;100.00
49843;BME280;55559;48.898;9.184;2022-12-07T04:51:45;98449.53;;;2.32;100.00
49843;BME280;55559;48.898;9.184;2022-12-07T04:54:12;98461.09;;;2.28;100.00
49843;BME280;55559;48.898;9.184;2022-12-07T04:56:40;98460.50;;;2.22;100.00
49843;BME280;55559;48.898;9.184;2022-12-07T04:59:08;98455.78;;;2.13;100.00
49843;BME280;55559;48.898;9.184;2022-12-07T05:01:36;98446.19;;;2.12;100.00
49843;BME280;55559;48.898;9.184;2022-12-07T05:04:04;98440.19;;;2.10;100.00
49843;BME280;55559;48.898;9.184;2022-12-07T05:06:31;98458.72;;;2.07;100.00
49843;BME280;55559;48.898;9.184;2022-12-07T05:09:03;98466.00;;;2.02;100.00
49843;BME280;55559;48.898;9.184;2022-12-07T05:11:31;98479.38;;;1.97;100.00
49843;BME280;55559;48.898;9.184;2022-12-07T05:14:10;98485.09;;;1.88;100.00
49843;BME280;55559;48.898;9.184;2022-12-07T05:16:38;98473.19;;;1.82;100.00
49843;BME280;55559;48.898;9.184;2022-12-07T05:19:05;98480.97;;;1.84;100.00
49843;BME280;55559;48.898;9.184;2022-12-07T05:21:32;98476.03;;;1.78;100.00
49843;BME280;55559;48.898;9.184;2022-12-07T05:24:00;98480.44;;;1.77;100.00
49843;BME280;55559;48.898;9.184;2022-12-07T05:26:29;98480.69;;;1.73;100.00
49843;BME280;55559;48.898;9.184;2022-12-07T05:28:56;98469.25;;;1.74;100.00
49843;BME280;55559;48.898;9.184;2022-12-07T05:31:28;98471.88;;;1.74;100.00
49843;BME280;55559;48.898;9.184;2022-12-07T05:33:55;98473.41;;;1.78;100.00
49843;BME280;55559;48.898;9.184;2022-12-07T05:36:23;98470.63;;;1.81;100.00
49843;BME280;55559;48.898;9.184;2022-12-07T05:38:51;98464.28;;;1.85;100.00
49843;BME280;55559;48.898;9.184;2022-12-07T05:41:18;98465.13;;;1.85;100.00
49843;BME280;55559;48.898;9.184;2022-12-07T05:44:05;98467.66;;;1.87;100.00
49843;BME280;55559;48.898;9.184;2022-12-07T05:46:33;98471.41;;;1.99;100.00
49843;BME280;55559;48.898;9.184;2022-12-07T05:49:00;98462.38;;;2.04;100.00
49843;BME280;55559;48.898;9.184;2022-12-07T05:51:28;98459.69;;;2.06;100.00
49843;BME280;55559;48.898;9.184;2022-12-07T05:53:59;98467.19;;;2.12;100.00
49843;BME280;55559;48.898;9.184;2022-12-07T05:56:27;98461.34;;;2.07;100.00
49843;BME280;55559;48.898;9.184;2022-12-07T05:58:54;98464.84;;;2.08;100.00
49843;BME280;55559;48.898;9.184;2022-12-07T06:01:41;98462.28;;;2.06;100.00
49843;BME280;55559;48.898;9.184;2022-12-07T06:04:08;98459.75;;;2.04;100.00
49843;BME280;55559;48.898;9.184;2022-12-07T06:06:35;98469.22;;;2.07;100.00
49843;BME280;55559;48.898;9.184;2022-12-07T06:09:03;98464.75;;;2.09;100.00
49843;BME280;55559;48.898;9.184;2022-12-07T06:11:31;98457.47;;;2.14;100.00
49843;BME280;55559;48.898;9.184;2022-12-07T06:14:16;98459.84;;;2.19;100.00
49843;BME280;55559;48.898;9.184;2022-12-07T06:16:44;98446.63;;;2.20;100.00
49843;BME280;55559;48.898;9.184;2022-12-07T06:19:12;98446.72;;;2.19;100.00
49843;BME280;55559;48.898;9.184;2022-12-07T06:21:39;98445.72;;;2.21;100.00
49843;BME280;55559;48.898;9.184;2022-12-07T06:24:07;98431.84;;;2.19;100.00
49843;BME280;55559;48.898;9.184;2022-12-07T06:26:36;98437.69;;;2.25;100.00
49843;BME280;55559;48.898;9.184;2022-12-07T06:29:03;98448.75;;;2.30;100.00
49843;BME280;55559;48.898;9.184;2022-12-07T06:31:31;98455.78;;;2.29;100.00
49843;BME280;55559;48.898;9.184;2022-12-07T06:34:00;98451.38;;;2.30;100.00
49843;BME280;55559;48.898;9.184;2022-12-07T06:36:35;98457.63;;;2.27;100.00
49843;BME280;55559;48.898;9.184;2022-12-07T06:39:03;98458.75;;;2.23;100.00
49843;BME280;55559;48.898;9.184;2022-12-07T06:41:31;98455.84;;;2.28;100.00
49843;BME280;55559;48.898;9.184;2022-12-07T06:43:58;98457.72;;;2.26;100.00
49843;BME280;55559;48.898;9.184;2022-12-07T06:46:26;98459.75;;;2.36;100.00
49843;BME280;55559;48.898;9.184;2022-12-07T06:48:53;98461.53;;;2.36;100.00
49843;BME280;55559;48.898;9.184;2022-12-07T06:51:22;98449.75;;;2.27;100.00
49843;BME280;55559;48.898;9.184;2022-12-07T06:53:50;98450.59;;;2.28;100.00
49843;BME280;55559;48.898;9.184;2022-12-07T06:56:17;98452.38;;;2.27;100.00
49843;BME280;55559;48.898;9.184;2022-12-07T06:58:44;98448.09;;;2.26;100.00
49843;BME280;55559;48.898;9.184;2022-12-07T07:01:14;98451.09;;;2.34;100.00
49843;BME280;55559;48.898;9.184;2022-12-07T07:03:41;98450.88;;;2.39;100.00
49843;BME280;55559;48.898;9.184;2022-12-07T07:06:09;98464.06;;;2.37;100.00
49843;BME280;55559;48.898;9.184;2022-12-07T07:08:39;98452.56;;;2.40;100.00
49843;BME280;55559;48.898;9.184;2022-12-07T07:11:07;98455.09;;;2.41;100.00
49843;BME280;55559;48.898;9.184;2022-12-07T07:13:35;98459.91;;;2.49;100.00
49843;BME280;55559;48.898;9.184;2022-12-07T07:16:03;98464.50;;;2.46;100.00
49843;BME280;55559;48.898;9.184;2022-12-07T07:18:30;98463.81;;;2.42;100.00
49843;BME280;55559;48.898;9.184;2022-12-07T07:20:58;98465.59;;;2.41;100.00
49843;BME280;55559;48.898;9.184;2022-12-07T07:23:25;98469.91;;;2.42;100.00
49843;BME280;55559;48.898;9.184;2022-12-07T07:25:54;98474.75;;;2.50;100.00
49843;BME280;55559;48.898;9.184;2022-12-07T07:28:22;98464.25;;;2.50;100.00
49843;BME280;55559;48.898;9.184;2022-12-07T07:30:56;98470.25;;;2.52;100.00
49843;BME280;55559;48.898;9.184;2022-12-07T07:33:23;98477.38;;;2.50;100.00
49843;BME280;55559;48.898;9.184;2022-12-07T07:35:51;98477.19;;;2.53;100.00
49843;BME280;55559;48.898;9.184;2022-12-07T07:38:18;98474.66;;;2.52;100.00
49843;BME280;55559;48.898;9.184;2022-12-07T07:40:46;98469.91;;;2.58;100.00
49843;BME280;55559;48.898;9.184;2022-12-07T07:43:15;98472.09;;;2.66;100.00
49843;BME280;55559;48.898;9.184;2022-12-07T07:45:42;98472.16;;;2.65;100.00
49843;BME280;55559;48.898;9.184;2022-12-07T07:48:11;98475.56;;;2.67;100.00
49843;BME280;55559;48.898;9.184;2022-12-07T07:50:38;98480.47;;;2.73;100.00
49843;BME280;55559;48.898;9.184;2022-12-07T07:53:06;98480.28;;;2.76;100.00
49843;BME280;55559;48.898;9.184;2022-12-07T07:55:35;98482.09;;;2.75;100.00
49843;BME280;55559;48.898;9.184;2022-12-07T07:58:02;98485.22;;;2.82;100.00
49843;BME280;55559;48.898;9.184;2022-12-07T08:00:31;98491.88;;;2.88;100.00
49843;BME280;55559;48.898;9.184;2022-12-07T08:02:58;98483.56;;;2.95;100.00
49843;BME280;55559;48.898;9.184;2022-12-07T08:05:26;98484.22;;;2.99;100.00
49843;BME280;55559;48.898;9.184;2022-12-07T08:07:53;98489.81;;;3.09;100.00
49843;BME280;55559;48.898;9.184;2022-12-07T08:10:21;98482.50;;;3.14;100.00
49843;BME280;55559;48.898;9.184;2022-12-07T08:12:48;98480.81;;;3.13;100.00
49843;BME280;55559;48.898;9.184;2022-12-07T08:15:37;98480.28;;;3.22;100.00
49843;BME280;55559;48.898;9.184;2022-12-07T08:18:04;98488.34;;;3.19;100.00
49843;BME280;55559;48.898;9.184;2022-12-07T08:20:34;98484.94;;;3.17;100.00
49843;BME280;55559;48.898;9.184;2022-12-07T08:23:02;98483.84;;;3.21;100.00
49843;BME280;55559;48.898;9.184;2022-12-07T08:25:29;98487.69;;;3.30;100.00
49843;BME280;55559;48.898;9.184;2022-12-07T08:27:57;98490.91;;;3.35;100.00
49843;BME280;55559;48.898;9.184;2022-12-07T08:30:26;98491.56;;;3.39;100.00
49843;BME280;55559;48.898;9.184;2022-12-07T08:32:56;98492.03;;;3.45;100.00
49843;BME280;55559;48.898;9.184;2022-12-07T08:35:24;98496.84;;;3.53;100.00
49843;BME280;55559;48.898;9.184;2022-12-07T08:37:52;98499.97;;;3.60;100.00
49843;BME280;55559;48.898;9.184;2022-12-07T08:40:19;98495.94;;;3.68;100.00
49843;BME280;55559;48.898;9.184;2022-12-07T08:42:49;98494.03;;;3.70;100.00
49843;BME280;55559;48.898;9.184;2022-12-07T08:45:17;98492.16;;;3.72;100.00
49843;BME280;55559;48.898;9.184;2022-12-07T08:47:48;98482.03;;;3.81;100.00
49843;BME280;55559;48.898;9.184;2022-12-07T08:50:19;98484.47;;;3.84;100.00
49843;BME280;55559;48.898;9.184;2022-12-07T08:52:48;98488.63;;;3.88;100.00
49843;BME280;55559;48.898;9.184;2022-12-07T08:55:18;98485.31;;;3.99;100.00
49843;BME280;55559;48.898;9.184;2022-12-07T08:57:46;98484.47;;;4.13;100.00
49843;BME280;55559;48.898;9.184;2022-12-07T09:00:14;98494.81;;;4.16;100.00
49843;BME280;55559;48.898;9.184;2022-12-07T09:02:43;98490.00;;;4.22;100.00
49843;BME280;55559;48.898;9.184;2022-12-07T09:05:11;98492.63;;;4.22;100.00
49843;BME280;55559;48.898;9.184;2022-12-07T09:07:42;98489.34;;;4.19;100.00
49843;BME280;55559;48.898;9.184;2022-12-07T09:10:10;98486.53;;;4.22;100.00
49843;BME280;55559;48.898;9.184;2022-12-07T09:12:38;98487.38;;;4.22;100.00
49843;BME280;55559;48.898;9.184;2022-12-07T09:15:06;98485.66;;;4.21;100.00
49843;BME280;55559;48.898;9.184;2022-12-07T09:17:34;98475.69;;;4.26;100.00
49843;BME280;55559;48.898;9.184;2022-12-07T09:20:02;98489.44;;;4.17;100.00
49843;BME280;55559;48.898;9.184;2022-12-07T09:22:30;98481.78;;;4.41;100.00
49843;BME280;55559;48.898;9.184;2022-12-07T09:24:59;98481.97;;;4.38;100.00
49843;BME280;55559;48.898;9.184;2022-12-07T09:27:27;98480.56;;;4.47;100.00
49843;BME280;55559;48.898;9.184;2022-12-07T09:29:54;98481.97;;;4.38;100.00
49843;BME280;55559;48.898;9.184;2022-12-07T09:32:22;98479.50;;;4.50;100.00
49843;BME280;55559;48.898;9.184;2022-12-07T09:34:50;98486.28;;;4.54;100.00
49843;BME280;55559;48.898;9.184;2022-12-07T09:37:17;98482.50;;;4.58;100.00
49843;BME280;55559;48.898;9.184;2022-12-07T09:39:44;98486.31;;;4.25;100.00
49843;BME280;55559;48.898;9.184;2022-12-07T09:42:24;98485.03;;;4.18;100.00
49843;BME280;55559;48.898;9.184;2022-12-07T09:44:53;98482.19;;;4.35;100.00
49843;BME280;55559;48.898;9.184;2022-12-07T09:47:21;98484.47;;;4.27;100.00
49843;BME280;55559;48.898;9.184;2022-12-07T09:49:48;98487.38;;;4.22;100.00
49843;BME280;55559;48.898;9.184;2022-12-07T09:52:27;98485.16;;;4.43;100.00
49843;BME280;55559;48.898;9.184;2022-12-07T09:54:55;98473.78;;;4.43;100.00
49843;BME280;55559;48.898;9.184;2022-12-07T09:57:27;98470.59;;;4.52;100.00
49843;BME280;55559;48.898;9.184;2022-12-07T09:59:56;98470.50;;;4.54;100.00
49843;BME280;55559;48.898;9.184;2022-12-07T10:02:36;98468.25;;;4.47;100.00
49843;BME280;55559;48.898;9.184;2022-12-07T10:05:06;98466.69;;;4.16;100.00
49843;BME280;55559;48.898;9.184;2022-12-07T10:07:34;98468.38;;;4.17;100.00
49843;BME280;55559;48.898;9.184;2022-12-07T10:10:03;98458.78;;;4.31;100.00
49843;BME280;55559;48.898;9.184;2022-12-07T10:12:53;98460.34;;;4.33;100.00
49843;BME280;55559;48.898;9.184;2022-12-07T10:15:21;98460.34;;;4.47;100.00
49843;BME280;55559;48.898;9.184;2022-12-07T10:17:50;98452.59;;;4.59;100.00
49843;BME280;55559;48.898;9.184;2022-12-07T10:20:21;98450.44;;;4.51;100.00
49843;BME280;55559;48.898;9.184;2022-12-07T10:22:55;98448.91;;;4.61;100.00
49843;BME280;55559;48.898;9.184;2022-12-07T10:25:28;98450.72;;;4.61;100.00
49843;BME280;55559;48.898;9.184;2022-12-07T10:28:01;98441.91;;;4.75;100.00
49843;BME280;55559;48.898;9.184;2022-12-07T10:30:30;98451.16;;;4.26;100.00
49843;BME280;55559;48.898;9.184;2022-12-07T10:32:58;98455.50;;;4.27;100.00
49843;BME280;55559;48.898;9.184;2022-12-07T10:35:27;98454.63;;;4.41;100.00
49843;BME280;55559;48.898;9.184;2022-12-07T10:37:58;98450.53;;;4.22;100.00
49843;BME280;55559;48.898;9.184;2022-12-07T10:40:30;98451.09;;;4.13;100.00
49843;BME280;55559;48.898;9.184;2022-12-07T10:43:18;98444.19;;;4.25;100.00
49843;BME280;55559;48.898;9.184;2022-12-07T10:46:13;98447.34;;;4.17;100.00
49843;BME280;55559;48.898;9.184;2022-12-07T10:48:51;98452.22;;;4.09;100.00
49843;BME280;55559;48.898;9.184;2022-12-07T10:51:24;98444.19;;;4.25;100.00
49843;BME280;55559;48.898;9.184;2022-12-07T10:54:00;98444.16;;;4.12;100.00
49843;BME280;55559;48.898;9.184;2022-12-07T10:56:45;98438.53;;;4.04;100.00
49843;BME280;55559;48.898;9.184;2022-12-07T11:02:40;98427.34;;;4.00;100.00
49843;BME280;55559;48.898;9.184;2022-12-07T11:05:19;98431.63;;;4.16;100.00
49843;BME280;55559;48.898;9.184;2022-12-07T11:08:00;98435.88;;;4.04;100.00
49843;BME280;55559;48.898;9.184;2022-12-07T11:10:35;98430.81;;;4.01;100.00
49843;BME280;55559;48.898;9.184;2022-12-07T11:13:28;98425.28;;;4.05;100.00
49843;BME280;55559;48.898;9.184;2022-12-07T11:16:14;98412.50;;;3.99;100.00
49843;BME280;55559;48.898;9.184;2022-12-07T11:18:51;98419.72;;;3.96;100.00
49843;BME280;55559;48.898;9.184;2022-12-07T11:21:28;98421.91;;;3.89;100.00
49843;BME280;55559;48.898;9.184;2022-12-07T11:24:01;98423.22;;;3.82;100.00
49843;BME280;55559;48.898;9.184;2022-12-07T11:26:41;98424.16;;;3.81;100.00
49843;BME280;55559;48.898;9.184;2022-12-07T11:29:26;98423.63;;;3.61;100.00
49843;BME280;55559;48.898;9.184;2022-12-07T11:32:05;98413.28;;;3.87;100.00
49843;BME280;55559;48.898;9.184;2022-12-07T11:34:42;98407.13;;;4.01;100.00
49843;BME280;55559;48.898;9.184;2022-12-07T11:37:18;98409.09;;;4.12;100.00
49843;BME280;55559;48.898;9.184;2022-12-07T11:39:50;98409.13;;;3.97;100.00
49843;BME280;55559;48.898;9.184;2022-12-07T11:42:22;98404.50;;;4.01;100.00
49843;BME280;55559;48.898;9.184;2022-12-07T11:44:53;98399.97;;;4.44;100.00
49843;BME280;55559;48.898;9.184;2022-12-07T11:47:30;98393.31;;;4.12;100.00
49843;BME280;55559;48.898;9.184;2022-12-07T11:50:21;98390.91;;;4.48;100.00
49843;BME280;55559;48.898;9.184;2022-12-07T11:52:53;98392.91;;;4.45;100.00
49843;BME280;55559;48.898;9.184;2022-12-07T11:55:28;98392.25;;;4.41;100.00
49843;BME280;55559;48.898;9.184;2022-12-07T11:58:03;98387.00;;;4.41;100.00
49843;BME280;55559;48.898;9.184;2022-12-07T12:00:31;98388.00;;;4.53;100.00
49843;BME280;55559;48.898;9.184;2022-12-07T12:03:04;98388.09;;;4.52;100.00
49843;BME280;55559;48.898;9.184;2022-12-07T12:05:35;98384.78;;;4.35;100.00
49843;BME280;55559;48.898;9.184;2022-12-07T12:08:12;98373.28;;;4.36;100.00
49843;BME280;55559;48.898;9.184;2022-12-07T12:10:55;98372.25;;;4.39;100.00
49843;BME280;55559;48.898;9.184;2022-12-07T12:20:00;98365.41;;;4.36;100.00
49843;BME280;55559;48.898;9.184;2022-12-07T12:22:34;98373.25;;;4.51;100.00
49843;BME280;55559;48.898;9.184;2022-12-07T12:25:05;98364.03;;;4.43;100.00
49843;BME280;55559;48.898;9.184;2022-12-07T12:27:34;98365.03;;;4.28;100.00
49843;BME280;55559;48.898;9.184;2022-12-07T12:30:06;98359.41;;;4.34;100.00
49843;BME280;55559;48.898;9.184;2022-12-07T12:32:39;98367.28;;;4.34;100.00
49843;BME280;55559;48.898;9.184;2022-12-07T12:35:29;98358.41;;;4.22;100.00
49843;BME280;55559;48.898;9.184;2022-12-07T12:38:25;98365.22;;;4.12;100.00
49843;BME280;55559;48.898;9.184;2022-12-07T12:40:54;98364.59;;;4.21;100.00
49843;BME280;55559;48.898;9.184;2022-12-07T12:43:48;98370.09;;;4.04;100.00
49843;BME280;55559;48.898;9.184;2022-12-07T12:56:01;98359.84;;;4.41;100.00
49843;BME280;55559;48.898;9.184;2022-12-07T12:58:39;98349.44;;;4.52;100.00
49843;BME280;55559;48.898;9.184;2022-12-07T13:01:33;98350.13;;;4.41;100.00
49843;BME280;55559;48.898;9.184;2022-12-07T13:04:18;98342.41;;;4.25;100.00
49843;BME280;55559;48.898;9.184;2022-12-07T13:06:49;98348.88;;;4.34;100.00
49843;BME280;55559;48.898;9.184;2022-12-07T13:09:22;98342.72;;;4.21;100.00
49843;BME280;55559;48.898;9.184;2022-12-07T13:12:00;98337.63;;;4.18;100.00
49843;BME280;55559;48.898;9.184;2022-12-07T13:14:53;98332.19;;;4.21;100.00
49843;BME280;55559;48.898;9.184;2022-12-07T13:20:49;98323.69;;;4.30;100.00
49843;BME280;55559;48.898;9.184;2022-12-07T13:23:23;98321.84;;;4.18;100.00
49843;BME280;55559;48.898;9.184;2022-12-07T13:25:59;98318.09;;;4.35;100.00
49843;BME280;55559;48.898;9.184;2022-12-07T13:28:36;98320.06;;;4.45;100.00
49843;BME280;55559;48.898;9.184;2022-12-07T13:31:14;98320.50;;;4.52;100.00
49843;BME280;55559;48.898;9.184;2022-12-07T13:33:46;98321.81;;;4.45;100.00
49843;BME280;55559;48.898;9.184;2022-12-07T13:36:24;98321.06;;;4.30;100.00
49843;BME280;55559;48.898;9.184;2022-12-07T13:38:56;98319.03;;;4.21;100.00
49843;BME280;55559;48.898;9.184;2022-12-07T13:41:25;98315.91;;;4.41;100.00
49843;BME280;55559;48.898;9.184;2022-12-07T13:44:01;98318.84;;;4.37;100.00
49843;BME280;55559;48.898;9.184;2022-12-07T13:46:42;98315.13;;;4.66;100.00
49843;BME280;55559;48.898;9.184;2022-12-07T13:49:20;98317.25;;;5.26;100.00